Descripción del Accidente ASN 23 JUN 2021 Gulfstream G280 M-ISTY - Genève-Cointrin Airport (GVA)
ASN logo
 
 
Estado:Information verified through authorities or other official sources.
Fecha:mircoles 23 junio 2021
Hora:19:20
Tipo:Silhouette image of generic G280 model; specific model in this crash may look slightly different
Gulfstream G280
Operador:INEOS Aviation
Registración: M-ISTY
Numéro de série: 2085
Año de Construcción: 2015
Motores: 2 Honeywell AS907-2-1G
Tripulación:Fatalidades: 0 / Ocupantes: 3
Pasajeros:Fatalidades: 0 / Ocupantes: 9
Total:Fatalidades: 0 / Ocupantes: 12
Daños en la Aeronave: Considerable
Ubicación:Genève-Cointrin Airport (GVA) (   Suiza)
Fase: Aterrizaje (LDG)
Naturaleza:Privado
Aeropuerto de Salida:Nice-Côte d'Azur Airport (NCE/LFMN), Francia
Aeropuerto de Llegada:Genève-Cointrin Airport (GVA/LSGG), Suiza
Descripción:
After a hard landing on runway 22 at Genève-Cointrin Airport, the aircraft showed deformations on the right wing root and was leaking jet fuel.

Accident investigation:

Investigating agency: STSB Switzerland
Status: Investigation ongoing

Fuentes:
» STSB

METAR Weather report:
16:20 UTC / 18:20 local time:
LSGG 231620Z 05010KT 9999 FEW045 FEW050CB SCT060 24/14 Q1015 TEMPO TS

17:20 UTC / 19:20 local time:
LSGG 231720Z VRB15G25KT 5000 +TSRA FEW015 SCT035 SCT050CB BKN080 19/15 Q1016 TEMPO TSRA

18:20 UTC / 20:20 local time:
LSGG 231820Z 07002KT 8000 -TSRA FEW010 SCT035 SCT050CB BKN080 16/15 Q1017 TEMPO TSRA


Fotos

Add your photo of this accident or aircraft

Map
This map shows the airport of departure and the intended destination of the flight. The line is connecting ADS-B datapoints from Flightradar24.
Distance from Nice-Côte d'Azur Airport to Genève-Cointrin Airport as the crow flies is 297 km (186 miles).
Accident location: Approximate; accuracy within a few kilometers.

This information is not presented as the Flight Safety Foundation or the Aviation Safety Network’s opinion as to the cause of the accident. It is preliminary and is based on the facts as they are known at this time.
languages: languages

Share

The Aviation Safety Network is an exclusive service provided by:
Quick Links:

CONNECT WITH US: FSF on social media FSF Facebook FSF Twitter FSF Youtube FSF LinkedIn FSF Instagram

©2024 Flight Safety Foundation

1920 Ballenger Av, 4th Fl.
Alexandria, Virginia 22314
www.FlightSafety.org